Fernan-Nunez, Spain
Current Conditions -  °F | °C
As of 3:00 PM on Thursday 29 Jan 2015 (Local Time) from LEBA Reporting Station
Scattered Clouds Scattered Clouds  
Wind Chill: 54°   Ceiling: Unl
Heat Index: 54°   Visibility: 6mi
Dew Point: 45°   Wind: 12mph
Humidity: 72%   Direction: 240°WSW
Pressure: 30.09"   Gusts: NA
Location:  37.67°N, 4.73°W
Report Text: LEBA 291400Z 24010KT 9999 SCT033 12/07 Q1019
Loading
Personal Weather Stations






























Interactive Weather Map New forecast layout! Learn more

10-Day Weather Forecast

Advertisements
Track Severe Weather on mobile